createdAt,value
2023-02-27T00:00:41.291Z,86.34
2023-02-27T00:03:07.750Z,86.77
2023-02-27T00:05:34.304Z,87.40
2023-02-27T00:08:00.789Z,87.55
2023-02-27T00:10:27.223Z,87.59
2023-02-27T00:12:53.795Z,87.81
2023-02-27T00:15:20.623Z,88.95
2023-02-27T00:17:47.227Z,88.79
2023-02-27T00:20:16.025Z,89.13
2023-02-27T00:22:43.156Z,89.82
2023-02-27T00:25:09.879Z,90.34
2023-02-27T00:27:37.075Z,91.00
2023-02-27T00:30:05.473Z,90.97
2023-02-27T00:32:31.993Z,91.71
2023-02-27T00:34:58.676Z,92.62
2023-02-27T00:37:25.143Z,92.47
2023-02-27T00:39:51.625Z,93.04
2023-02-27T00:42:18.067Z,92.87
2023-02-27T00:44:44.659Z,93.52
2023-02-27T00:47:11.167Z,93.59
2023-02-27T00:49:37.647Z,93.51
2023-02-27T00:52:04.334Z,94.21
2023-02-27T00:54:30.809Z,95.11
2023-02-27T00:56:57.563Z,95.21
2023-02-27T00:59:24.058Z,95.22
2023-02-27T01:01:50.501Z,94.95
2023-02-27T01:04:17.130Z,95.33
2023-02-27T01:06:43.764Z,94.96
2023-02-27T01:09:10.226Z,95.11
2023-02-27T01:11:36.858Z,94.95
2023-02-27T01:14:03.600Z,95.09
2023-02-27T01:16:30.235Z,95.44
2023-02-27T01:18:57.358Z,96.10
2023-02-27T01:21:24.576Z,95.93
2023-02-27T01:23:51.194Z,95.66
2023-02-27T01:26:17.784Z,95.64
2023-02-27T01:28:44.303Z,95.65
2023-02-27T01:31:10.880Z,96.43
2023-02-27T01:33:37.466Z,96.63
2023-02-27T01:36:04.319Z,96.82
2023-02-27T01:38:31.013Z,97.11
2023-02-27T01:40:57.617Z,97.33
2023-02-27T01:43:24.363Z,97.06
2023-02-27T01:45:51.212Z,96.66
2023-02-27T01:48:36.133Z,97.15
2023-02-27T01:51:08.985Z,97.60
2023-02-27T01:53:37.568Z,97.34
2023-02-27T01:56:15.276Z,97.17
2023-02-27T01:58:42.751Z,98.02
2023-02-27T02:01:09.493Z,98.29
2023-02-27T02:03:38.581Z,98.84
2023-02-27T02:06:07.231Z,98.84
2023-02-27T02:08:40.026Z,99.34
2023-02-27T02:11:07.598Z,100.00
2023-02-27T02:13:34.943Z,100.00
2023-02-27T02:16:10.389Z,100.00
2023-02-27T02:19:02.305Z,100.00
2023-02-27T02:21:50.383Z,100.00
2023-02-27T02:24:34.994Z,100.00
2023-02-27T02:27:03.784Z,100.00
2023-02-27T02:29:59.241Z,100.00
2023-02-27T02:32:41.128Z,100.00
2023-02-27T02:35:19.477Z,100.00
2023-02-27T02:38:03.872Z,100.00
2023-02-27T02:40:48.118Z,100.00
2023-02-27T02:43:25.193Z,100.00
2023-02-27T02:46:14.824Z,100.00
2023-02-27T02:48:48.898Z,100.00
2023-02-27T02:51:18.782Z,100.00
2023-02-27T02:54:14.466Z,100.00
2023-02-27T02:56:44.015Z,100.00
2023-02-27T02:59:38.109Z,100.00
2023-02-27T03:02:08.385Z,100.00
2023-02-27T03:04:44.582Z,100.00
2023-02-27T03:07:22.981Z,100.00
2023-02-27T03:09:54.153Z,100.00
2023-02-27T03:12:23.998Z,100.00
2023-02-27T03:14:55.161Z,100.00
2023-02-27T03:17:47.364Z,100.00
2023-02-27T03:20:22.872Z,100.00
2023-02-27T03:22:52.482Z,100.00
2023-02-27T03:25:19.962Z,100.00
2023-02-27T03:27:54.747Z,100.00
2023-02-27T03:30:27.149Z,100.00
2023-02-27T03:32:57.645Z,100.00
2023-02-27T03:35:30.916Z,100.00
2023-02-27T03:38:08.964Z,100.00
2023-02-27T03:40:39.044Z,100.00
2023-02-27T03:43:21.669Z,100.00
2023-02-27T03:45:59.961Z,100.00
2023-02-27T03:48:26.813Z,100.00
2023-02-27T03:50:53.326Z,100.00
2023-02-27T03:53:34.088Z,100.00
2023-02-27T03:56:01.549Z,100.00
2023-02-27T03:58:28.224Z,100.00
2023-02-27T04:00:55.311Z,100.00
2023-02-27T04:03:22.088Z,100.00
2023-02-27T04:05:48.559Z,100.00
2023-02-27T04:08:37.165Z,100.00
2023-02-27T04:11:32.976Z,100.00
2023-02-27T04:14:17.901Z,100.00
2023-02-27T04:17:07.025Z,100.00
2023-02-27T04:19:36.521Z,100.00
2023-02-27T04:22:37.845Z,100.00
2023-02-27T04:25:04.352Z,100.00
2023-02-27T04:27:48.504Z,100.00
2023-02-27T04:30:26.367Z,100.00
2023-02-27T04:32:58.947Z,100.00
2023-02-27T04:35:43.504Z,100.00
2023-02-27T04:38:19.472Z,100.00
2023-02-27T04:41:08.367Z,100.00
2023-02-27T04:43:35.942Z,100.00
2023-02-27T04:46:02.881Z,100.00
2023-02-27T04:48:34.348Z,99.85
2023-02-27T04:51:08.823Z,99.55
2023-02-27T04:53:50.271Z,99.30
2023-02-27T04:56:21.827Z,99.31
2023-02-27T04:58:51.863Z,99.03
2023-02-27T05:01:22.971Z,98.99
2023-02-27T05:03:52.198Z,98.10
2023-02-27T05:06:22.016Z,97.88
2023-02-27T05:08:53.298Z,98.17
2023-02-27T05:11:34.026Z,98.16
2023-02-27T05:14:06.818Z,97.57
2023-02-27T05:16:39.747Z,96.85
2023-02-27T05:19:06.599Z,97.64
2023-02-27T05:21:40.358Z,97.75
2023-02-27T05:24:22.065Z,98.47
2023-02-27T05:27:07.080Z,98.08
2023-02-27T05:29:51.159Z,96.90
2023-02-27T05:32:29.539Z,97.16
2023-02-27T05:35:10.697Z,96.74
2023-02-27T05:37:43.833Z,96.53
2023-02-27T05:40:15.452Z,95.76
2023-02-27T05:42:45.742Z,95.33
2023-02-27T05:45:18.114Z,93.94
2023-02-27T05:47:49.315Z,93.96
2023-02-27T05:50:25.123Z,93.74
2023-02-27T05:52:53.412Z,93.36
2023-02-27T05:55:26.169Z,91.72
2023-02-27T05:58:26.119Z,89.50
2023-02-27T06:01:11.638Z,89.85
2023-02-27T06:03:39.809Z,89.34
2023-02-27T06:06:09.148Z,88.98
2023-02-27T06:08:35.873Z,87.59
2023-02-27T06:11:02.996Z,85.72
2023-02-27T06:13:29.606Z,84.51
2023-02-27T06:15:57.095Z,84.03
2023-02-27T06:18:23.897Z,82.69
2023-02-27T06:20:50.884Z,79.27
2023-02-27T06:23:17.561Z,75.20
2023-02-27T06:25:44.424Z,74.91
2023-02-27T06:28:11.534Z,73.15
2023-02-27T06:30:38.272Z,70.48
2023-02-27T06:33:05.583Z,71.07
2023-02-27T06:35:32.245Z,70.56
2023-02-27T06:37:58.932Z,69.00
2023-02-27T06:40:25.943Z,68.12
2023-02-27T06:42:52.478Z,65.99
2023-02-27T06:45:19.156Z,63.96
2023-02-27T06:47:46.043Z,63.20
2023-02-27T06:50:13.830Z,63.09
2023-02-27T06:52:40.917Z,64.10
2023-02-27T06:55:09.031Z,64.09
2023-02-27T06:57:35.630Z,62.81
2023-02-27T07:00:04.069Z,62.62
2023-02-27T07:02:31.055Z,61.88
2023-02-27T07:04:57.723Z,60.97
2023-02-27T07:07:34.108Z,62.19
2023-02-27T07:10:03.727Z,61.91
2023-02-27T07:12:30.211Z,60.26
2023-02-27T07:15:00.119Z,60.43
2023-02-27T07:17:26.941Z,60.29
2023-02-27T07:19:54.633Z,58.81
2023-02-27T07:22:21.151Z,58.58
2023-02-27T07:24:47.985Z,58.19
2023-02-27T07:27:14.748Z,57.20
2023-02-27T07:29:41.585Z,58.33
2023-02-27T07:32:08.564Z,58.96
2023-02-27T07:34:35.241Z,58.56
2023-02-27T07:37:01.756Z,58.62
2023-02-27T07:39:28.511Z,58.85
2023-02-27T07:41:57.651Z,58.82
2023-02-27T07:44:24.310Z,56.62
2023-02-27T07:46:51.485Z,55.73
2023-02-27T07:49:18.341Z,55.49
2023-02-27T07:51:45.294Z,54.17
2023-02-27T07:54:12.390Z,53.57
2023-02-27T07:56:39.255Z,51.10
2023-02-27T07:59:06.049Z,47.97
2023-02-27T08:01:32.968Z,41.03
2023-02-27T08:03:59.486Z,32.94
2023-02-27T08:06:26.390Z,26.62
2023-02-27T08:08:53.439Z,23.89
2023-02-27T08:11:20.049Z,20.90
2023-02-27T08:14:02.879Z,20.53
2023-02-27T08:16:31.353Z,19.59
2023-02-27T08:18:58.609Z,17.53
2023-02-27T08:21:26.098Z,15.45
2023-02-27T08:23:53.146Z,16.01
2023-02-27T08:26:19.794Z,15.84
2023-02-27T08:28:46.471Z,18.17
2023-02-27T08:31:13.199Z,18.59
2023-02-27T08:33:40.004Z,19.31
2023-02-27T08:36:08.013Z,19.09
2023-02-27T08:38:34.932Z,19.25
2023-02-27T08:41:01.709Z,19.14
2023-02-27T08:43:28.228Z,18.66
2023-02-27T08:45:54.990Z,21.55
2023-02-27T08:48:24.358Z,23.72
2023-02-27T08:50:51.663Z,20.29
2023-02-27T11:37:30.863Z,44.69
2023-02-27T11:40:13.688Z,44.69
2023-02-27T11:42:50.107Z,44.60
2023-02-27T11:46:17.039Z,44.50
2023-02-27T11:48:47.746Z,44.53
2023-02-27T11:51:37.294Z,43.96
2023-02-27T11:54:38.920Z,44.35
2023-02-27T11:57:14.840Z,45.13
2023-02-27T12:00:19.873Z,45.60
2023-02-27T12:03:10.631Z,46.13
2023-02-27T12:05:44.799Z,45.46
2023-02-27T12:08:19.850Z,44.86
2023-02-27T12:11:12.463Z,45.13
2023-02-27T12:13:43.152Z,45.42
2023-02-27T12:16:32.306Z,46.00
2023-02-27T12:19:11.185Z,46.66
2023-02-27T12:21:41.238Z,45.76
2023-02-27T12:24:32.584Z,45.64
2023-02-27T12:27:17.351Z,45.41
2023-02-27T12:29:57.379Z,45.10
2023-02-27T12:32:31.191Z,44.36
2023-02-27T12:35:17.279Z,44.19
2023-02-27T12:37:43.849Z,44.05
2023-02-27T12:40:16.836Z,44.77
2023-02-27T12:42:57.639Z,46.04
2023-02-27T12:46:07.179Z,45.76
2023-02-27T12:48:52.477Z,46.06
2023-02-27T12:51:38.945Z,45.49
2023-02-27T12:54:15.975Z,44.90
2023-02-27T12:56:45.655Z,45.22
2023-02-27T12:59:51.688Z,45.74
2023-02-27T13:02:40.159Z,45.06
2023-02-27T13:05:22.705Z,45.54
2023-02-27T13:07:54.177Z,45.69
2023-02-27T13:10:53.067Z,46.13
2023-02-27T13:13:27.541Z,45.85
2023-02-27T13:16:15.829Z,45.15
2023-02-27T13:18:55.717Z,45.53
2023-02-27T13:21:29.372Z,45.55
2023-02-27T13:24:16.362Z,45.67
2023-02-27T13:26:47.164Z,46.45
2023-02-27T13:29:15.625Z,45.28
2023-02-27T13:31:46.998Z,45.62
2023-02-27T13:34:40.159Z,44.67
2023-02-27T13:37:08.801Z,45.43
2023-02-27T13:39:45.660Z,46.05
2023-02-27T13:42:27.674Z,46.03
2023-02-27T13:44:58.308Z,46.17
2023-02-27T13:47:30.709Z,45.57
2023-02-27T13:49:59.525Z,45.74
2023-02-27T13:52:30.040Z,45.79
2023-02-27T13:55:06.270Z,46.34
2023-02-27T13:57:38.343Z,47.27
2023-02-27T14:00:26.397Z,47.19
2023-02-27T14:03:04.853Z,46.52
2023-02-27T14:05:40.251Z,46.06
2023-02-27T14:08:12.642Z,46.30
2023-02-27T14:10:41.758Z,46.16
2023-02-27T14:13:43.145Z,45.92
2023-02-27T14:16:11.343Z,46.33
2023-02-27T14:18:55.327Z,46.79
2023-02-27T14:21:54.331Z,45.75
2023-02-27T14:24:24.907Z,46.21
2023-02-27T14:26:52.663Z,46.42
2023-02-27T14:29:31.199Z,46.47
2023-02-27T14:32:00.913Z,47.22
2023-02-27T14:34:27.905Z,47.17
2023-02-27T14:36:57.579Z,47.72
2023-02-27T14:39:30.926Z,47.96
2023-02-27T14:42:03.577Z,47.37
2023-02-27T14:44:38.223Z,46.81
2023-02-27T14:47:35.548Z,46.80
2023-02-27T14:50:08.023Z,47.23
2023-02-27T14:52:43.013Z,47.17
2023-02-27T14:55:19.107Z,47.27
2023-02-27T14:58:01.743Z,47.77
2023-02-27T15:00:52.621Z,47.22
2023-02-27T15:03:30.183Z,46.75
2023-02-27T15:06:01.193Z,46.30
2023-02-27T15:08:39.766Z,46.77
2023-02-27T15:11:06.818Z,47.31
2023-02-27T15:13:37.166Z,47.53
2023-02-27T15:16:20.784Z,47.19
2023-02-27T15:18:50.844Z,47.41
2023-02-27T15:21:20.396Z,47.92
2023-02-27T15:24:00.254Z,47.71
2023-02-27T15:26:30.132Z,46.80
2023-02-27T15:28:59.798Z,46.50
2023-02-27T15:31:30.183Z,47.31
2023-02-27T15:34:01.075Z,47.12
2023-02-27T15:36:35.208Z,47.74
2023-02-27T15:39:22.533Z,48.09
2023-02-27T15:41:56.071Z,47.78
2023-02-27T15:44:43.276Z,48.01
2023-02-27T15:47:12.854Z,48.68
2023-02-27T15:49:39.714Z,49.20
2023-02-27T15:52:13.905Z,48.89
2023-02-27T15:54:47.655Z,48.67
2023-02-27T15:57:14.718Z,49.88
2023-02-27T15:59:42.856Z,49.99
2023-02-27T16:02:24.651Z,50.09
2023-02-27T16:04:51.442Z,49.87
2023-02-27T16:07:21.119Z,50.13
2023-02-27T16:09:58.041Z,49.95
2023-02-27T16:12:30.646Z,49.64
2023-02-27T16:15:24.751Z,50.11
2023-02-27T16:18:04.359Z,49.86
2023-02-27T16:20:34.105Z,49.06
2023-02-27T16:23:21.764Z,48.63
2023-02-27T16:26:28.190Z,49.19
2023-02-27T16:29:03.707Z,49.75
2023-02-27T16:31:32.736Z,50.35
2023-02-27T16:34:45.796Z,50.18
2023-02-27T16:37:24.151Z,50.22
2023-02-27T16:39:52.136Z,49.95
2023-02-27T16:42:18.740Z,50.27
2023-02-27T16:44:45.393Z,50.31
2023-02-27T16:47:12.766Z,50.17
2023-02-27T16:49:40.473Z,49.90
2023-02-27T16:52:09.636Z,49.51
2023-02-27T16:54:36.835Z,50.26
2023-02-27T16:57:03.979Z,50.15
2023-02-27T16:59:37.664Z,50.26
2023-02-27T17:02:06.838Z,50.54
2023-02-27T17:04:33.423Z,50.29
2023-02-27T17:07:01.770Z,50.54
2023-02-27T17:09:29.255Z,50.86
2023-02-27T17:11:59.840Z,51.34
2023-02-27T17:14:26.628Z,51.79
2023-02-27T17:16:53.216Z,51.42
2023-02-27T17:19:21.507Z,51.23
2023-02-27T17:21:48.721Z,51.15
2023-02-27T17:24:15.247Z,50.62
2023-02-27T17:26:41.760Z,51.42
2023-02-27T17:29:09.862Z,51.99
2023-02-27T17:31:37.070Z,51.18
2023-02-27T17:34:04.695Z,51.54
2023-02-27T17:36:31.380Z,51.23
2023-02-27T17:39:00.581Z,50.18
2023-02-27T17:41:28.203Z,49.60
2023-02-27T17:43:58.048Z,50.17
2023-02-27T17:46:25.931Z,49.67
2023-02-27T17:48:54.786Z,50.46
2023-02-27T17:51:21.311Z,50.26
2023-02-27T17:53:48.240Z,50.27
2023-02-27T17:56:14.811Z,50.26
2023-02-27T17:58:45.443Z,49.84
2023-02-27T18:01:15.165Z,49.91
2023-02-27T18:03:41.733Z,49.95
2023-02-27T18:06:08.918Z,50.07
2023-02-27T18:08:35.480Z,50.71
2023-02-27T18:11:02.311Z,50.85
2023-02-27T18:13:28.812Z,50.86
2023-02-27T18:15:57.586Z,50.84
2023-02-27T18:18:24.344Z,50.79
2023-02-27T18:21:02.652Z,51.44
2023-02-27T18:23:29.269Z,51.05
2023-02-27T18:25:57.821Z,50.94
2023-02-27T18:28:24.496Z,50.96
2023-02-27T18:30:51.437Z,51.40
2023-02-27T18:33:19.575Z,51.04
2023-02-27T18:35:47.383Z,51.02
2023-02-27T18:38:14.541Z,51.01
2023-02-27T18:40:42.649Z,50.46
2023-02-27T18:43:10.807Z,50.98
2023-02-27T18:45:38.042Z,51.33
2023-02-27T18:48:04.754Z,51.63
2023-02-27T18:50:31.429Z,50.81
2023-02-27T18:52:59.220Z,51.51
2023-02-27T18:55:26.346Z,51.30
2023-02-27T18:57:53.243Z,51.53
2023-02-27T19:00:24.197Z,52.25
2023-02-27T19:02:51.086Z,52.34
2023-02-27T19:05:18.555Z,52.82
2023-02-27T19:07:45.600Z,52.12
2023-02-27T19:10:13.041Z,51.76
2023-02-27T19:12:40.062Z,51.98
2023-02-27T19:15:09.358Z,51.76
2023-02-27T19:17:36.199Z,51.62
2023-02-27T19:20:02.852Z,51.63
2023-02-27T19:22:30.465Z,52.20
2023-02-27T19:25:00.571Z,52.13
2023-02-27T19:27:27.260Z,51.96
2023-02-27T19:29:54.373Z,52.07
2023-02-27T19:32:21.662Z,52.30
2023-02-27T19:34:48.467Z,52.15
2023-02-27T19:37:16.776Z,51.72
2023-02-27T19:39:43.517Z,52.59
2023-02-27T19:42:10.818Z,52.70
2023-02-27T19:44:37.650Z,52.98
2023-02-27T19:47:04.626Z,52.87
2023-02-27T19:49:31.447Z,53.69
2023-02-27T19:51:59.125Z,53.10
2023-02-27T19:54:25.719Z,53.40
2023-02-27T19:56:54.405Z,53.07
2023-02-27T19:59:23.827Z,53.03
2023-02-27T20:01:50.890Z,53.14
2023-02-27T20:04:20.836Z,53.24
2023-02-27T20:06:49.856Z,52.96
2023-02-27T20:09:17.796Z,53.40
2023-02-27T20:11:53.513Z,53.57
2023-02-27T20:14:20.240Z,53.61
2023-02-27T20:16:46.871Z,53.47
2023-02-27T20:19:15.863Z,53.31
2023-02-27T20:21:51.926Z,54.34
2023-02-27T20:24:19.168Z,54.41
2023-02-27T20:26:50.422Z,54.19
2023-02-27T20:29:20.059Z,54.86
2023-02-27T20:31:49.255Z,55.46
2023-02-27T20:34:22.014Z,55.17
2023-02-27T20:36:54.235Z,55.23
2023-02-27T20:39:21.369Z,55.54
2023-02-27T20:41:48.429Z,55.79
2023-02-27T20:44:15.718Z,55.45
2023-02-27T20:46:43.866Z,55.25
2023-02-27T20:49:12.603Z,55.15
2023-02-27T20:51:39.602Z,55.59
2023-02-27T20:54:09.090Z,56.02
2023-02-27T20:56:38.295Z,56.76
2023-02-27T20:59:06.242Z,56.44
2023-02-27T21:01:33.303Z,56.20
2023-02-27T21:04:00.300Z,55.61
2023-02-27T21:06:27.466Z,55.03
2023-02-27T21:08:56.663Z,55.22
2023-02-27T21:11:29.047Z,55.97
2023-02-27T21:13:57.527Z,55.58
2023-02-27T21:16:25.622Z,56.13
2023-02-27T21:18:53.489Z,56.60
2023-02-27T21:21:28.187Z,56.53
2023-02-27T21:23:55.379Z,56.04
2023-02-27T21:26:28.569Z,56.04
2023-02-27T21:29:00.418Z,55.93
2023-02-27T21:31:29.646Z,56.57
2023-02-27T21:33:58.086Z,56.33
2023-02-27T21:36:30.140Z,56.77
2023-02-27T21:39:00.925Z,56.39
2023-02-27T21:41:28.093Z,56.86
2023-02-27T21:43:59.310Z,56.95
2023-02-27T21:46:26.079Z,56.91
2023-02-27T21:48:52.869Z,56.90
2023-02-27T21:51:36.811Z,56.59
2023-02-27T21:54:05.309Z,57.11
2023-02-27T21:56:31.827Z,58.12
2023-02-27T21:59:01.236Z,57.69
2023-02-27T22:01:28.141Z,58.14
2023-02-27T22:03:54.971Z,58.25
2023-02-27T22:06:23.127Z,58.39
2023-02-27T22:08:56.200Z,58.61
2023-02-27T22:11:23.344Z,58.39
2023-02-27T22:13:49.892Z,58.96
2023-02-27T22:16:16.524Z,59.69
2023-02-27T22:18:43.118Z,59.14
2023-02-27T22:21:16.655Z,59.52
2023-02-27T22:23:44.189Z,61.76
2023-02-27T22:26:16.060Z,61.65
2023-02-27T22:28:42.551Z,61.37
2023-02-27T22:31:10.144Z,61.82
2023-02-27T22:33:37.426Z,62.00
2023-02-27T22:36:13.000Z,62.05
2023-02-27T22:38:39.794Z,62.14
2023-02-27T22:41:09.164Z,63.11
2023-02-27T22:43:38.204Z,63.07
2023-02-27T22:46:04.973Z,62.53
2023-02-27T22:48:31.900Z,62.91
2023-02-27T22:51:03.343Z,63.21
2023-02-27T22:53:32.956Z,63.66
2023-02-27T22:55:59.676Z,63.89
2023-02-27T22:58:26.241Z,63.83
2023-02-27T23:00:53.562Z,64.28
2023-02-27T23:03:20.130Z,67.10
2023-02-27T23:05:50.192Z,68.52
2023-02-27T23:08:16.862Z,68.23
2023-02-27T23:10:43.602Z,67.66
2023-02-27T23:13:11.036Z,68.25
2023-02-27T23:15:38.624Z,67.93
2023-02-27T23:18:05.643Z,67.02
2023-02-27T23:20:32.403Z,67.87
2023-02-27T23:22:59.050Z,68.07
2023-02-27T23:25:25.529Z,68.15
2023-02-27T23:27:52.017Z,67.37
2023-02-27T23:30:18.503Z,67.85
2023-02-27T23:32:45.709Z,67.88
2023-02-27T23:35:13.200Z,68.54
2023-02-27T23:37:39.798Z,68.51
2023-02-27T23:40:07.194Z,68.93
2023-02-27T23:42:33.660Z,69.27
2023-02-27T23:45:00.235Z,69.30
2023-02-27T23:47:42.873Z,69.60
2023-02-27T23:50:10.464Z,69.54
2023-02-27T23:52:37.008Z,69.61
2023-02-27T23:55:04.510Z,69.88
2023-02-27T23:57:32.039Z,69.48
2023-02-27T23:59:58.511Z,69.81
